Time;durP1;ratioP1;P1;durP2;ratioP2;P2;SDS_P1;SDS_P2;PMS_P1;PMS_P2;Temp;Humidity;BMP_temperature;BMP_pressure;BME280_temperature;BME280_humidity;BME280_pressure;Samples;Min_cycle;Max_cycle;Signal;HPM_P1;HPM_P2
2021/12/10 00:00:39;;;;;;;293.63;41.67;;;0.20;99.90;;;;;;4190574;28;20033;-52
2021/12/10 00:02:46;;;;;;;328.77;44.83;;;0.20;99.90;;;;;;4191829;28;20037;-53
2021/12/10 00:04:48;;;;;;;71.07;35.13;;;0.20;99.90;;;;;;4187488;28;20094;-54
2021/12/10 00:06:54;;;;;;;114.22;34.58;;;0.20;99.90;;;;;;4193458;28;20561;-52
2021/12/10 00:09:00;;;;;;;124.82;32.00;;;0.30;99.90;;;;;;4171841;28;20556;-53
2021/12/10 00:11:08;;;;;;;33.40;30.83;;;0.40;99.90;;;;;;4192638;28;20040;-51
2021/12/10 00:13:11;;;;;;;257.15;34.15;;;0.50;99.90;;;;;;4186661;28;20032;-54
2021/12/10 00:15:13;;;;;;;;;;;0.40;99.90;;;;;;4196200;28;20041;-54
2021/12/10 00:17:16;;;;;;;122.65;32.53;;;0.40;99.90;;;;;;4190070;28;19931;-52
2021/12/10 00:21:29;;;;;;;148.80;33.15;;;0.30;99.90;;;;;;4195547;28;20082;-52
2021/12/10 00:23:32;;;;;;;154.52;36.17;;;0.30;99.90;;;;;;4187609;28;20037;-52
2021/12/10 00:25:41;;;;;;;38.42;33.88;;;0.20;99.90;;;;;;4191362;28;20024;-54
2021/12/10 00:27:44;;;;;;;93.25;30.70;;;0.30;99.90;;;;;;4195824;28;20036;-54
2021/12/10 00:29:49;;;;;;;46.72;32.53;;;0.30;99.90;;;;;;4193459;28;20044;-53
2021/12/10 00:31:57;;;;;;;84.53;31.40;;;0.40;99.90;;;;;;4178176;28;20091;-54
2021/12/10 00:34:05;;;;;;;31.23;29.38;;;0.40;99.90;;;;;;4195889;28;20408;-52
2021/12/10 00:36:07;;;;;;;113.65;30.90;;;0.40;99.90;;;;;;4179897;28;20045;-52
2021/12/10 00:38:09;;;;;;;;;;;0.30;99.90;;;;;;4193873;28;20037;-54
2021/12/10 00:40:15;;;;;;;160.65;42.17;;;0.10;99.90;;;;;;4191873;28;19925;-54
2021/12/10 00:42:21;;;;;;;206.43;47.20;;;0.20;99.90;;;;;;4177818;28;20032;-53
2021/12/10 00:44:23;;;;;;;95.57;35.53;;;0.10;99.90;;;;;;4182619;28;20045;-53
2021/12/10 00:46:26;;;;;;;261.92;40.53;;;0.20;99.90;;;;;;4194403;28;20044;-53
2021/12/10 00:48:28;;;;;;;286.77;43.72;;;0.20;99.90;;;;;;4176273;28;20095;-53
2021/12/10 00:50:45;;;;;;;36.70;33.10;;;0.10;99.90;;;;;;4192966;28;20067;-53
2021/12/10 00:52:48;;;;;;;348.40;39.67;;;0.20;99.90;;;;;;4186913;28;20041;-51
2021/12/10 00:54:51;;;;;;;701.75;55.35;;;0.20;99.90;;;;;;4193712;28;20040;-51
2021/12/10 00:56:53;;;;;;;;;;;0.00;99.90;;;;;;4194129;28;20040;-54
2021/12/10 00:58:55;;;;;;;288.20;41.55;;;0.00;99.90;;;;;;4192912;28;19920;-53
2021/12/10 01:01:01;;;;;;;404.42;46.22;;;0.00;99.90;;;;;;4194917;28;20025;-52
2021/12/10 01:03:06;;;;;;;442.88;51.67;;;-0.10;99.90;;;;;;4194149;28;20028;-53
2021/12/10 01:05:11;;;;;;;315.15;40.15;;;-0.10;99.90;;;;;;4186315;28;20044;-54
2021/12/10 01:07:22;;;;;;;346.98;40.38;;;-0.20;99.90;;;;;;4189840;28;20037;-51
2021/12/10 01:09:37;;;;;;;302.85;40.13;;;-0.30;99.90;;;;;;4157804;28;20114;-52
2021/12/10 01:11:47;;;;;;;158.95;34.70;;;-0.40;99.90;;;;;;4193712;28;20055;-54
2021/12/10 01:13:55;;;;;;;241.68;40.70;;;-0.30;99.90;;;;;;4193435;28;20102;-54
2021/12/10 01:23:46;;;;;;;355.77;45.03;;;-0.20;99.90;;;;;;4194326;28;20033;-54
2021/12/10 01:23:50;;;;;;;340.23;40.88;;;-0.20;99.90;;;;;;4164688;28;20049;-53
2021/12/10 01:26:10;;;;;;;230.25;37.85;;;-0.20;99.90;;;;;;4193619;28;20500;-53
2021/12/10 01:28:12;;;;;;;306.00;39.05;;;-0.20;99.90;;;;;;4194919;28;20037;-52
2021/12/10 01:30:30;;;;;;;369.55;41.97;;;-0.20;99.90;;;;;;4173741;28;20033;-52
2021/12/10 01:32:36;;;;;;;303.27;37.05;;;-0.20;99.90;;;;;;4193988;28;20079;-53
2021/12/10 01:34:39;;;;;;;278.02;37.33;;;-0.30;99.90;;;;;;4194201;28;20032;-52
2021/12/10 01:36:41;;;;;;;194.98;37.10;;;-0.30;99.90;;;;;;4189586;28;20037;-53
2021/12/10 01:38:48;;;;;;;248.07;35.33;;;-0.30;99.90;;;;;;4193645;28;20036;-54
2021/12/10 01:40:56;;;;;;;264.15;35.53;;;-0.40;99.90;;;;;;4192200;28;20419;-53
2021/12/10 01:43:06;;;;;;;241.27;34.22;;;-0.40;99.90;;;;;;4193552;28;20048;-53
2021/12/10 01:45:20;;;;;;;197.52;33.10;;;-0.40;99.90;;;;;;4193161;28;20036;-53
2021/12/10 01:47:34;;;;;;;190.90;31.00;;;-0.40;99.90;;;;;;4186504;28;20468;-54
2021/12/10 01:49:37;;;;;;;124.82;33.33;;;-0.50;99.90;;;;;;4185176;28;20044;-53
2021/12/10 01:51:42;;;;;;;118.32;31.70;;;-0.40;99.90;;;;;;4193127;28;20052;-53
2021/12/10 01:53:48;;;;;;;129.68;33.40;;;-0.50;99.90;;;;;;4192181;28;20059;-53
2021/12/10 01:55:54;;;;;;;140.90;33.08;;;-0.40;99.90;;;;;;4195122;28;20555;-54
2021/12/10 01:57:58;;;;;;;137.93;34.42;;;-0.50;99.90;;;;;;4193119;28;20112;-52
2021/12/10 02:00:01;;;;;;;140.10;34.80;;;-0.50;99.90;;;;;;4194474;28;20037;-54
2021/12/10 02:02:10;;;;;;;81.88;30.92;;;-0.60;99.90;;;;;;4188877;28;20086;-53
2021/12/10 02:04:17;;;;;;;120.38;32.88;;;-0.60;99.90;;;;;;4192895;28;20488;-54
2021/12/10 02:06:20;;;;;;;113.18;31.10;;;-0.60;99.90;;;;;;4190241;28;20485;-53
2021/12/10 02:08:22;;;;;;;145.00;35.03;;;-0.60;99.90;;;;;;4195229;28;20047;-53
2021/12/10 02:10:28;;;;;;;220.65;40.85;;;-0.70;99.90;;;;;;4191938;28;20041;-54
2021/12/10 02:12:30;;;;;;;275.70;40.58;;;-0.80;99.90;;;;;;4193616;28;20044;-54
2021/12/10 02:14:33;;;;;;;261.15;44.00;;;-1.00;99.90;;;;;;4191944;28;20056;-53
2021/12/10 02:16:37;;;;;;;317.27;55.72;;;-0.90;99.90;;;;;;4194311;28;20044;-53
2021/12/10 02:18:40;;;;;;;167.30;42.67;;;-0.90;99.90;;;;;;4190014;28;20106;-53
2021/12/10 02:20:57;;;;;;;209.32;43.90;;;-0.80;99.90;;;;;;4194292;28;20040;-53
2021/12/10 02:23:03;;;;;;;377.83;45.45;;;-0.90;99.90;;;;;;4191965;28;20541;-52
2021/12/10 02:25:07;;;;;;;396.88;48.20;;;-0.90;99.90;;;;;;4184826;28;20080;-53
2021/12/10 02:27:09;;;;;;;336.48;45.03;;;-1.00;99.90;;;;;;4193718;28;20036;-54
2021/12/10 02:29:12;;;;;;;431.33;46.38;;;-0.90;99.90;;;;;;4194459;28;20090;-53
2021/12/10 02:31:14;;;;;;;;;;;-0.90;99.90;;;;;;4191362;28;20028;-53
2021/12/10 02:33:17;;;;;;;89.60;35.38;;;-0.90;99.90;;;;;;4192505;28;19975;-54
2021/12/10 02:35:20;;;;;;;289.08;40.20;;;-0.70;99.90;;;;;;4192171;28;20040;-53
2021/12/10 02:37:22;;;;;;;366.60;44.70;;;-0.70;99.90;;;;;;4162953;28;20041;-54
2021/12/10 02:39:26;;;;;;;219.20;39.70;;;-0.70;99.90;;;;;;4174814;28;20042;-54
2021/12/10 02:41:31;;;;;;;184.60;38.53;;;-0.80;99.90;;;;;;4191774;28;20036;-54
2021/12/10 02:43:34;;;;;;;257.05;38.65;;;-0.70;99.90;;;;;;4188934;28;20037;-54
2021/12/10 02:45:38;;;;;;;252.50;38.17;;;-0.70;99.90;;;;;;4183739;28;20599;-52
2021/12/10 02:47:40;;;;;;;176.10;36.60;;;-0.80;99.90;;;;;;4192825;28;20040;-54
2021/12/10 02:49:43;;;;;;;59.72;31.60;;;-0.80;99.90;;;;;;4191195;28;20504;-54
2021/12/10 02:51:46;;;;;;;126.10;32.88;;;-0.70;99.90;;;;;;4193724;28;20106;-53
2021/12/10 02:53:48;;;;;;;132.80;37.25;;;-0.60;99.90;;;;;;4193467;28;20047;-53
2021/12/10 02:55:50;;;;;;;138.90;32.95;;;-0.60;99.90;;;;;;4193029;28;20097;-54
2021/12/10 02:57:55;;;;;;;237.00;35.63;;;-0.60;99.90;;;;;;4192993;28;20086;-53
2021/12/10 02:59:57;;;;;;;67.20;34.15;;;-0.70;99.90;;;;;;4186276;28;20467;-52
2021/12/10 03:02:00;;;;;;;57.17;33.10;;;-0.70;99.90;;;;;;4189845;28;20036;-51
2021/12/10 03:04:04;;;;;;;118.35;33.65;;;-0.60;99.90;;;;;;4192129;28;20078;-53
2021/12/10 03:06:10;;;;;;;122.72;30.45;;;-0.50;99.90;;;;;;4192651;28;20558;-53
2021/12/10 03:08:13;;;;;;;111.10;34.78;;;-0.50;99.90;;;;;;4185419;28;20563;-53
2021/12/10 03:10:17;;;;;;;;;;;-0.60;99.90;;;;;;4184155;28;20079;-54
2021/12/10 03:12:21;;;;;;;129.88;36.00;;;-0.60;99.90;;;;;;4190816;28;19924;-53
2021/12/10 03:14:27;;;;;;;87.95;33.25;;;-0.50;99.90;;;;;;4192719;28;20550;-53
2021/12/10 03:16:29;;;;;;;82.13;31.02;;;-0.50;99.90;;;;;;4173927;28;20041;-53
2021/12/10 03:18:33;;;;;;;312.05;40.85;;;-0.50;99.90;;;;;;4173154;28;20040;-53
2021/12/10 03:20:36;;;;;;;308.13;39.55;;;-0.60;99.90;;;;;;4192604;28;20050;-54
2021/12/10 03:22:39;;;;;;;72.55;31.48;;;-0.70;99.90;;;;;;4192696;28;20040;-54
2021/12/10 03:24:41;;;;;;;229.75;37.88;;;-0.80;99.90;;;;;;4193449;28;20094;-53
2021/12/10 03:26:45;;;;;;;235.45;34.75;;;-0.70;99.90;;;;;;4190552;28;20062;-54
2021/12/10 03:28:49;;;;;;;73.30;31.67;;;-0.80;99.90;;;;;;4191689;28;20040;-53
2021/12/10 03:30:53;;;;;;;63.40;32.30;;;-0.70;99.90;;;;;;4191593;28;20059;-53
2021/12/10 03:32:56;;;;;;;81.88;27.85;;;-0.60;99.90;;;;;;4192993;28;20429;-52
2021/12/10 03:35:03;;;;;;;45.80;31.85;;;-0.50;99.90;;;;;;4191290;28;20500;-54
2021/12/10 03:37:06;;;;;;;272.75;37.17;;;-0.50;99.90;;;;;;4191759;28;20492;-55
2021/12/10 03:39:08;;;;;;;;;;;-0.60;99.90;;;;;;4190175;28;20040;-54
2021/12/10 03:41:11;;;;;;;170.75;36.00;;;-0.60;99.90;;;;;;4192985;28;19982;-54
2021/12/10 03:43:15;;;;;;;73.63;32.75;;;-0.70;99.90;;;;;;4190832;28;20563;-54
2021/12/10 03:45:18;;;;;;;100.05;33.97;;;-0.70;99.90;;;;;;4186383;28;20401;-54
2021/12/10 03:47:20;;;;;;;279.75;40.92;;;-0.70;99.90;;;;;;4191862;28;20040;-54
2021/12/10 03:49:22;;;;;;;108.47;32.45;;;-0.80;99.90;;;;;;4186313;28;20579;-55
2021/12/10 03:51:25;;;;;;;90.35;34.20;;;-0.90;99.90;;;;;;4191683;28;20493;-55
2021/12/10 03:53:27;;;;;;;90.53;32.42;;;-0.80;99.90;;;;;;4193514;28;20341;-54
2021/12/10 03:55:30;;;;;;;123.20;35.45;;;-0.70;99.90;;;;;;4192698;28;20555;-50
2021/12/10 03:57:33;;;;;;;129.68;34.72;;;-0.70;99.90;;;;;;4192657;28;20041;-54
2021/12/10 03:59:36;;;;;;;98.10;33.80;;;-0.80;99.90;;;;;;4191001;28;20082;-54
2021/12/10 04:01:42;;;;;;;55.60;32.85;;;-0.70;99.90;;;;;;4191323;28;20036;-51
2021/12/10 04:03:47;;;;;;;33.80;31.33;;;-0.70;99.90;;;;;;4190663;28;20119;-52
2021/12/10 04:05:50;;;;;;;83.70;29.70;;;-0.50;99.90;;;;;;4177329;28;20041;-50
2021/12/10 04:07:52;;;;;;;177.05;34.67;;;-0.60;99.90;;;;;;4190639;28;20044;-53
2021/12/10 04:09:55;;;;;;;94.00;33.80;;;-0.70;99.90;;;;;;4177935;28;20102;-53
2021/12/10 04:11:57;;;;;;;153.63;34.75;;;-0.70;99.90;;;;;;4190910;28;20040;-53
2021/12/10 04:14:00;;;;;;;153.80;36.88;;;-0.70;99.90;;;;;;4189785;28;20036;-52
2021/12/10 04:16:03;;;;;;;133.23;34.58;;;-0.80;99.90;;;;;;4188880;28;20036;-53
2021/12/10 04:18:08;;;;;;;123.47;34.95;;;-0.80;99.90;;;;;;4184021;28;20040;-53
2021/12/10 04:20:11;;;;;;;88.15;34.60;;;-0.80;99.90;;;;;;4191625;28;20075;-53
2021/12/10 04:22:13;;;;;;;;;;;-0.80;99.90;;;;;;4192923;28;20467;-54
2021/12/10 04:24:18;;;;;;;52.75;33.47;;;-0.80;99.90;;;;;;4190403;28;19982;-53
2021/12/10 04:26:24;;;;;;;41.83;32.17;;;-0.70;99.90;;;;;;4179802;28;20056;-52
2021/12/10 04:28:27;;;;;;;165.20;32.80;;;-0.70;99.90;;;;;;4191035;28;20040;-54
2021/12/10 04:30:35;;;;;;;79.50;34.30;;;-0.70;99.90;;;;;;4190469;28;20048;-52
2021/12/10 04:32:40;;;;;;;116.65;35.92;;;-0.70;99.90;;;;;;4190202;28;20845;-53
2021/12/10 04:34:42;;;;;;;131.73;35.78;;;-0.80;99.90;;;;;;4192262;28;20052;-53
2021/12/10 04:36:45;;;;;;;144.63;36.22;;;-0.80;99.90;;;;;;4190415;28;20033;-54
2021/12/10 04:38:47;;;;;;;;;;;-0.90;99.90;;;;;;4173522;28;20080;-54
2021/12/10 04:40:51;;;;;;;129.98;33.55;;;-1.00;99.90;;;;;;4190993;28;19972;-53
2021/12/10 04:42:53;;;;;;;88.80;31.35;;;-1.00;99.90;;;;;;4193190;28;20108;-54
2021/12/10 04:44:58;;;;;;;103.10;35.25;;;-0.90;99.90;;;;;;4188842;28;20036;-54
2021/12/10 04:47:00;;;;;;;125.95;36.60;;;-1.00;99.90;;;;;;4192001;28;20177;-52
2021/12/10 04:49:12;;;;;;;134.73;36.75;;;-0.90;99.90;;;;;;4191001;28;20040;-54
2021/12/10 04:51:15;;;;;;;129.40;36.13;;;-1.00;99.90;;;;;;4192294;28;20535;-54
2021/12/10 04:53:17;;;;;;;125.00;34.55;;;-1.00;99.90;;;;;;4191044;28;20040;-53
2021/12/10 04:55:20;;;;;;;146.23;36.15;;;-1.00;99.90;;;;;;4191263;28;20043;-52
2021/12/10 04:57:22;;;;;;;117.68;36.95;;;-1.00;99.90;;;;;;4193500;28;20036;-54
2021/12/10 04:59:27;;;;;;;132.65;40.42;;;-1.00;99.90;;;;;;4191930;28;20040;-53
2021/12/10 05:01:31;;;;;;;110.00;33.40;;;-1.00;99.90;;;;;;4187776;28;20039;-53
2021/12/10 05:03:33;;;;;;;73.65;34.58;;;-1.00;99.90;;;;;;4190920;28;20041;-53
2021/12/10 05:05:36;;;;;;;128.00;37.17;;;-1.00;99.90;;;;;;4186809;28;20040;-53
2021/12/10 05:07:39;;;;;;;36.47;31.58;;;-1.00;99.90;;;;;;4192634;28;20047;-54
2021/12/10 05:09:43;;;;;;;115.60;36.10;;;-0.90;99.90;;;;;;4193945;28;20428;-53
2021/12/10 05:11:46;;;;;;;344.67;43.28;;;-0.90;99.90;;;;;;4193833;28;20059;-53
2021/12/10 05:13:48;;;;;;;265.95;39.33;;;-1.10;99.90;;;;;;4195510;28;20048;-53
2021/12/10 05:15:57;;;;;;;79.13;34.55;;;-1.20;99.90;;;;;;4193172;28;20036;-54
2021/12/10 05:17:59;;;;;;;79.78;32.83;;;-1.20;99.90;;;;;;4192086;28;20048;-53
2021/12/10 05:20:12;;;;;;;156.50;35.55;;;-1.00;99.90;;;;;;4190998;28;20059;-54
2021/12/10 05:22:15;;;;;;;133.90;32.83;;;-1.00;99.90;;;;;;4194640;28;20040;-54
2021/12/10 05:24:18;;;;;;;140.55;33.25;;;-1.00;99.90;;;;;;4193587;28;20086;-54
2021/12/10 05:26:20;;;;;;;65.78;33.40;;;-1.00;99.90;;;;;;4195230;28;20037;-53
2021/12/10 05:28:24;;;;;;;122.60;33.45;;;-1.00;99.90;;;;;;4194071;28;20545;-53
2021/12/10 05:30:29;;;;;;;57.95;33.45;;;-1.10;99.90;;;;;;4186096;28;20044;-53
2021/12/10 05:32:33;;;;;;;109.13;34.75;;;-1.10;99.90;;;;;;4191477;28;20036;-53
2021/12/10 05:34:39;;;;;;;100.50;34.10;;;-1.10;99.90;;;;;;4195077;28;20044;-53
2021/12/10 05:36:41;;;;;;;92.35;34.08;;;-1.10;99.90;;;;;;4194720;28;20043;-54
2021/12/10 05:38:44;;;;;;;37.53;33.08;;;-1.20;99.90;;;;;;4194983;28;20040;-54
2021/12/10 05:40:49;;;;;;;46.33;33.33;;;-1.10;99.90;;;;;;4192062;28;20094;-53
2021/12/10 05:42:52;;;;;;;95.90;35.25;;;-1.10;99.90;;;;;;4193206;28;20071;-54
2021/12/10 05:44:54;;;;;;;144.50;38.45;;;-1.00;99.90;;;;;;4192936;28;20059;-54
2021/12/10 05:46:58;;;;;;;122.32;37.05;;;-1.10;99.90;;;;;;4191494;28;20033;-53
2021/12/10 05:49:00;;;;;;;85.88;37.53;;;-1.10;99.90;;;;;;4192420;28;20043;-52
2021/12/10 05:51:02;;;;;;;221.18;38.30;;;-1.10;99.90;;;;;;4194412;28;20107;-54
2021/12/10 05:53:06;;;;;;;213.85;34.92;;;-1.20;99.90;;;;;;4197783;28;20036;-53
2021/12/10 05:55:09;;;;;;;192.50;39.58;;;-1.30;99.90;;;;;;4207865;28;20098;-54
2021/12/10 05:57:12;;;;;;;87.47;36.58;;;-1.30;99.90;;;;;;4194918;28;20036;-53
2021/12/10 05:59:14;;;;;;;134.88;36.28;;;-1.30;99.90;;;;;;4193160;28;20037;-53
2021/12/10 06:01:19;;;;;;;323.23;42.88;;;-1.20;99.90;;;;;;4193588;28;20500;-53
2021/12/10 06:03:23;;;;;;;148.50;35.53;;;-1.20;99.90;;;;;;4192955;28;20068;-54
2021/12/10 06:05:27;;;;;;;220.05;39.35;;;-1.30;99.90;;;;;;4188600;28;20040;-53
2021/12/10 06:07:30;;;;;;;329.92;47.28;;;-1.30;99.90;;;;;;4183029;28;20036;-51
2021/12/10 06:09:33;;;;;;;382.15;46.58;;;-1.30;99.90;;;;;;4187740;28;20039;-53
2021/12/10 06:11:36;;;;;;;83.15;33.40;;;-1.40;99.90;;;;;;4182163;28;20102;-54
2021/12/10 06:13:38;;;;;;;354.80;43.28;;;-1.40;99.90;;;;;;4193112;28;20048;-54
2021/12/10 06:15:40;;;;;;;92.93;34.72;;;-1.30;99.90;;;;;;4190701;28;20524;-54
2021/12/10 06:17:43;;;;;;;214.85;41.15;;;-1.30;99.90;;;;;;4194834;28;20036;-54
2021/12/10 06:19:45;;;;;;;104.95;35.10;;;-1.30;99.90;;;;;;4194320;28;20037;-54
2021/12/10 06:21:48;;;;;;;122.40;36.78;;;-1.20;99.90;;;;;;4190162;28;20028;-51
2021/12/10 06:23:50;;;;;;;207.15;41.75;;;-1.20;99.90;;;;;;4190245;28;20110;-51
2021/12/10 06:25:53;;;;;;;458.75;50.42;;;-1.10;99.90;;;;;;4194217;28;20048;-52
2021/12/10 06:27:55;;;;;;;247.68;41.35;;;-1.20;99.90;;;;;;4193721;28;20036;-51
2021/12/10 06:29:58;;;;;;;312.25;42.80;;;-1.20;99.90;;;;;;4194959;28;20094;-52
2021/12/10 06:32:00;;;;;;;284.33;42.92;;;-1.30;99.90;;;;;;4193147;28;20132;-49
2021/12/10 06:34:03;;;;;;;210.82;40.70;;;-1.30;99.90;;;;;;4194180;28;20119;-51
2021/12/10 06:36:06;;;;;;;209.52;37.25;;;-1.20;99.90;;;;;;4193295;28;20416;-53
2021/12/10 06:38:09;;;;;;;;;;;-1.30;99.90;;;;;;4194122;28;20524;-52
2021/12/10 06:40:14;;;;;;;151.48;37.75;;;-1.30;99.90;;;;;;4193315;28;20368;-51
2021/12/10 06:42:16;;;;;;;207.82;40.47;;;-1.30;99.90;;;;;;4192960;28;20607;-52
2021/12/10 06:44:36;;;;;;;111.43;35.90;;;-1.30;99.90;;;;;;4193316;28;20400;-50
2021/12/10 06:46:38;;;;;;;135.27;34.30;;;-1.30;99.90;;;;;;4194048;28;20044;-52
2021/12/10 06:48:40;;;;;;;158.43;41.03;;;-1.30;99.90;;;;;;4193072;28;20051;-52
2021/12/10 06:50:51;;;;;;;164.02;38.17;;;-1.30;99.90;;;;;;4159222;28;20509;-52
2021/12/10 06:52:54;;;;;;;75.03;37.17;;;-1.30;99.90;;;;;;4191336;28;20075;-52
2021/12/10 06:54:56;;;;;;;104.35;36.75;;;-1.30;99.90;;;;;;4192632;28;20068;-52
2021/12/10 06:56:58;;;;;;;97.07;34.78;;;-1.30;99.90;;;;;;4191229;28;20055;-52
2021/12/10 06:59:01;;;;;;;;;;;-1.40;99.90;;;;;;4192811;28;20072;-52
2021/12/10 07:01:22;;;;;;;75.40;36.17;;;-1.40;99.90;;;;;;4190310;28;19924;-51
2021/12/10 07:03:27;;;;;;;170.90;37.05;;;-1.30;99.90;;;;;;4177241;28;20036;-51
2021/12/10 07:05:29;;;;;;;77.50;35.65;;;-1.30;99.90;;;;;;4191809;28;20478;-51
2021/12/10 07:07:32;;;;;;;114.82;36.50;;;-1.20;99.90;;;;;;4191891;28;20066;-52
2021/12/10 07:09:35;;;;;;;113.05;34.40;;;-1.20;99.90;;;;;;4192733;28;20378;-51
2021/12/10 07:11:37;;;;;;;197.65;39.97;;;-1.20;99.90;;;;;;4193147;28;20045;-51
2021/12/10 07:13:43;;;;;;;60.30;36.67;;;-1.20;99.90;;;;;;4191357;28;20037;-51
2021/12/10 07:15:47;;;;;;;75.35;36.50;;;-1.20;99.90;;;;;;4193266;28;20036;-51
2021/12/10 07:17:51;;;;;;;45.30;32.72;;;-1.20;99.90;;;;;;4192557;28;20063;-52
2021/12/10 07:19:53;;;;;;;123.55;38.58;;;-1.20;99.90;;;;;;4193112;28;20047;-50
2021/12/10 07:21:56;;;;;;;110.50;37.97;;;-1.10;99.90;;;;;;4191800;28;20029;-51
2021/12/10 07:24:01;;;;;;;170.40;41.95;;;-1.10;99.90;;;;;;4191452;28;20547;-52
2021/12/10 07:26:05;;;;;;;105.53;42.40;;;-1.00;99.90;;;;;;4191091;28;20048;-51
2021/12/10 07:28:07;;;;;;;166.35;41.72;;;-1.00;99.90;;;;;;4192835;28;20044;-52
2021/12/10 07:30:09;;;;;;;343.90;50.88;;;-0.90;99.90;;;;;;4193584;28;20040;-51
2021/12/10 07:32:12;;;;;;;369.70;48.80;;;-1.00;99.90;;;;;;4192489;28;20036;-51
2021/12/10 07:34:15;;;;;;;349.25;47.38;;;-1.10;99.90;;;;;;4192936;28;20040;-52
2021/12/10 07:36:17;;;;;;;227.70;43.97;;;-1.10;99.90;;;;;;4192257;28;20036;-50
2021/12/10 07:38:20;;;;;;;218.38;45.83;;;-1.10;99.90;;;;;;4191597;28;20131;-52
2021/12/10 07:40:27;;;;;;;130.13;41.28;;;-1.00;99.90;;;;;;4192181;28;20043;-51
2021/12/10 07:42:29;;;;;;;273.17;44.92;;;-0.90;99.90;;;;;;4192370;28;20070;-51
2021/12/10 07:44:31;;;;;;;121.82;41.40;;;-0.90;99.90;;;;;;4192419;28;20049;-52
2021/12/10 07:46:34;;;;;;;206.65;44.60;;;-0.90;99.90;;;;;;4191936;28;20040;-52
2021/12/10 07:48:37;;;;;;;243.18;46.28;;;-0.90;99.90;;;;;;4190739;28;20036;-52
2021/12/10 07:50:41;;;;;;;;;;;-0.90;99.90;;;;;;4193487;28;20516;-52
2021/12/10 07:52:45;;;;;;;190.48;49.58;;;-0.90;99.90;;;;;;4190589;28;19928;-52
2021/12/10 07:54:48;;;;;;;81.15;39.20;;;-0.90;99.90;;;;;;4192668;28;20064;-51
2021/12/10 07:56:52;;;;;;;291.25;48.90;;;-0.90;99.90;;;;;;4192353;28;20044;-52
2021/12/10 07:58:55;;;;;;;284.00;48.95;;;-0.90;99.90;;;;;;4202145;28;20036;-51
2021/12/10 08:00:59;;;;;;;236.23;40.33;;;-0.90;99.90;;;;;;4198990;28;20040;-52
2021/12/10 08:03:02;;;;;;;288.35;43.85;;;-1.00;99.90;;;;;;4191378;28;20041;-52
2021/12/10 08:05:05;;;;;;;46.83;39.20;;;-1.10;99.90;;;;;;4192581;28;20041;-52
2021/12/10 08:07:08;;;;;;;105.07;40.63;;;-1.10;99.90;;;;;;4192585;28;20044;-53
2021/12/10 08:09:10;;;;;;;39.65;36.45;;;-0.90;99.90;;;;;;4189015;28;20035;-52
2021/12/10 08:11:13;;;;;;;180.77;42.33;;;-0.90;99.90;;;;;;4191898;28;20518;-52
2021/12/10 08:13:17;;;;;;;141.25;40.28;;;-0.90;99.90;;;;;;4190474;28;20106;-53
2021/12/10 08:15:20;;;;;;;136.07;38.55;;;-0.90;99.90;;;;;;4194400;28;20043;-53
2021/12/10 08:17:26;;;;;;;229.15;41.33;;;-0.90;99.90;;;;;;4191556;28;20090;-52
2021/12/10 08:19:28;;;;;;;176.45;39.15;;;-1.00;99.90;;;;;;4191486;28;20465;-53
2021/12/10 08:21:30;;;;;;;179.48;46.85;;;-1.00;99.90;;;;;;4189489;28;20048;-53
2021/12/10 08:23:34;;;;;;;332.45;45.97;;;-0.90;99.90;;;;;;4191654;28;20036;-53
2021/12/10 08:25:36;;;;;;;337.60;53.15;;;-0.80;99.90;;;;;;4191579;28;20090;-53
2021/12/10 08:27:39;;;;;;;271.30;43.75;;;-0.80;99.90;;;;;;4192865;28;20048;-53
2021/12/10 08:29:43;;;;;;;361.45;49.95;;;-1.00;99.90;;;;;;4190481;28;20044;-53
2021/12/10 08:31:45;;;;;;;230.82;44.47;;;-1.00;99.90;;;;;;4192972;28;20068;-54
2021/12/10 08:33:49;;;;;;;554.15;65.32;;;-1.00;99.90;;;;;;4175767;28;20438;-53
2021/12/10 08:36:01;;;;;;;433.85;56.47;;;-1.00;99.90;;;;;;4193794;28;20045;-53
2021/12/10 08:38:04;;;;;;;101.22;41.58;;;-1.00;99.90;;;;;;4193369;28;20055;-54
2021/12/10 08:40:12;;;;;;;88.72;39.65;;;-1.00;99.90;;;;;;4196126;28;20033;-54
2021/12/10 08:42:15;;;;;;;309.98;49.30;;;-1.00;99.90;;;;;;4195847;28;20102;-54
2021/12/10 08:44:17;;;;;;;44.38;39.45;;;-1.00;99.90;;;;;;4196119;28;20515;-54
2021/12/10 08:46:20;;;;;;;78.75;40.25;;;-0.90;99.90;;;;;;4190242;28;20512;-54
2021/12/10 08:48:23;;;;;;;;;;;-0.90;99.90;;;;;;4181035;28;20555;-54
2021/12/10 08:50:27;;;;;;;72.47;41.95;;;-0.80;99.90;;;;;;4175057;28;19924;-54
2021/12/10 08:52:29;;;;;;;101.30;57.25;;;-0.80;99.90;;;;;;4195565;28;20040;-55
2021/12/10 08:54:32;;;;;;;153.73;47.90;;;-0.70;99.90;;;;;;4192909;28;20823;-54
2021/12/10 08:56:35;;;;;;;312.38;44.35;;;-0.70;99.90;;;;;;4175753;28;20092;-53
2021/12/10 08:58:38;;;;;;;266.10;46.78;;;-0.70;99.90;;;;;;4195752;28;20039;-53
2021/12/10 09:00:45;;;;;;;189.00;45.65;;;-0.80;99.90;;;;;;4195348;28;20036;-54
2021/12/10 09:02:53;;;;;;;38.92;35.45;;;-0.80;99.90;;;;;;4192979;28;20060;-54
2021/12/10 09:04:55;;;;;;;92.93;40.53;;;-0.70;99.90;;;;;;4194766;28;20535;-54
2021/12/10 09:07:03;;;;;;;367.52;50.05;;;-0.70;99.90;;;;;;4194185;28;20044;-52
2021/12/10 09:09:08;;;;;;;305.20;47.95;;;-0.60;99.90;;;;;;4191792;28;20672;-54
2021/12/10 09:11:12;;;;;;;211.73;43.15;;;-0.70;99.90;;;;;;4192982;28;20033;-53
2021/12/10 09:13:16;;;;;;;78.22;39.78;;;-0.80;99.90;;;;;;4195024;28;20055;-54
2021/12/10 09:15:21;;;;;;;36.38;33.25;;;-0.70;99.90;;;;;;4194833;28;20047;-51
2021/12/10 09:17:26;;;;;;;40.33;37.28;;;-0.60;99.90;;;;;;4194754;28;20040;-52
2021/12/10 09:19:31;;;;;;;93.50;41.58;;;-0.60;99.90;;;;;;4193617;28;20090;-52
2021/12/10 09:21:34;;;;;;;226.98;53.28;;;-0.50;99.90;;;;;;4194479;28;20032;-52
2021/12/10 09:23:38;;;;;;;167.27;54.10;;;-0.40;99.90;;;;;;4194887;28;20032;-53
2021/12/10 09:25:41;;;;;;;220.30;57.15;;;-0.50;99.90;;;;;;4195947;28;20037;-52
2021/12/10 09:27:44;;;;;;;44.03;40.03;;;-0.50;99.90;;;;;;4194007;28;20047;-53
2021/12/10 09:29:47;;;;;;;43.55;39.85;;;-0.40;99.90;;;;;;4194070;28;20028;-52
2021/12/10 09:31:50;;;;;;;49.25;43.92;;;-0.50;99.90;;;;;;4196206;28;20505;-53
2021/12/10 09:33:55;;;;;;;47.45;43.47;;;-0.50;99.90;;;;;;4192661;28;20066;-53
2021/12/10 09:35:58;;;;;;;43.42;40.08;;;-0.50;99.90;;;;;;4194388;28;20428;-54
2021/12/10 09:38:00;;;;;;;48.13;44.75;;;-0.60;99.90;;;;;;4181847;28;20098;-53
2021/12/10 09:40:10;;;;;;;46.65;42.95;;;-0.50;99.90;;;;;;4192169;28;20045;-53
2021/12/10 09:42:12;;;;;;;48.33;44.47;;;-0.50;99.90;;;;;;4188476;28;20407;-53
2021/12/10 09:44:15;;;;;;;48.42;44.70;;;-0.40;99.90;;;;;;4193918;28;20052;-54
2021/12/10 09:46:18;;;;;;;47.42;43.78;;;-0.30;99.90;;;;;;4159379;28;20034;-52
2021/12/10 09:48:20;;;;;;;;;;;-0.10;99.90;;;;;;4195775;28;20690;-52
2021/12/10 09:50:27;;;;;;;44.72;41.17;;;-0.10;99.90;;;;;;4191055;28;20412;-53
2021/12/10 09:52:29;;;;;;;45.22;41.63;;;-0.10;99.90;;;;;;4177002;28;20048;-52
2021/12/10 09:54:33;;;;;;;47.30;43.50;;;0.00;99.90;;;;;;4191950;28;20028;-53
2021/12/10 09:56:35;;;;;;;47.50;43.53;;;-0.10;99.90;;;;;;4195172;28;20040;-53
2021/12/10 09:58:38;;;;;;;48.75;44.38;;;0.00;99.90;;;;;;4178567;28;20476;-52
2021/12/10 10:00:49;;;;;;;38.03;34.70;;;0.10;99.90;;;;;;4178463;28;20397;-52
2021/12/10 10:02:51;;;;;;;36.65;33.70;;;0.10;99.90;;;;;;4191800;28;20484;-53
2021/12/10 10:04:54;;;;;;;39.35;35.75;;;0.10;99.90;;;;;;4194167;28;20036;-52
2021/12/10 10:07:00;;;;;;;34.35;31.40;;;0.20;99.90;;;;;;4192649;28;20037;-52
2021/12/10 10:09:04;;;;;;;35.22;31.95;;;0.20;99.90;;;;;;4194543;28;20388;-53
2021/12/10 10:11:25;;;;;;;29.38;26.65;;;0.30;99.90;;;;;;4193558;28;20040;-52
2021/12/10 10:13:31;;;;;;;24.30;22.75;;;0.40;99.90;;;;;;4192927;28;20102;-53
2021/12/10 10:15:38;;;;;;;25.55;24.08;;;0.30;99.90;;;;;;4194663;28;20101;-52
2021/12/10 10:17:41;;;;;;;32.67;29.92;;;0.30;99.90;;;;;;4191469;28;20039;-50
2021/12/10 10:19:43;;;;;;;44.22;38.03;;;0.40;99.90;;;;;;4193876;28;20115;-53
2021/12/10 10:21:49;;;;;;;33.42;30.50;;;0.40;99.90;;;;;;4192530;28;20037;-53
2021/12/10 10:23:52;;;;;;;27.38;24.85;;;0.40;99.90;;;;;;4193616;28;20473;-53
2021/12/10 10:25:58;;;;;;;36.70;33.58;;;0.50;99.90;;;;;;4191658;28;20037;-53
2021/12/10 10:28:03;;;;;;;38.03;35.05;;;0.60;99.90;;;;;;4193327;28;20063;-53
2021/12/10 10:30:40;;;;;;;46.28;42.70;;;0.60;99.90;;;;;;4194439;28;20082;-52
2021/12/10 10:32:45;;;;;;;46.67;42.88;;;0.60;99.90;;;;;;4194008;28;20083;-52
2021/12/10 10:34:53;;;;;;;43.63;40.13;;;0.60;99.90;;;;;;4191850;28;20029;-53
2021/12/10 10:36:55;;;;;;;47.65;43.63;;;0.60;99.90;;;;;;4193952;28;20044;-52